PITTSFIELD MILLS DAM SUNCOOK RIVER PITTSFIELD, NH: From 03/10/2019 02:00 to 03/24/2019 12:00

Date PRECIPITATION INCREMENT [IN] WATER TEMPERATURE [F] AIR TEMPERATURE [F] POOL ELEVATION [FT] RESERVOIR RELEASE [CFS]
03/24/2019 05:00 -- -- -- -- 352.0
03/24/2019 04:00 0.00 35.2 27.0 475.24 354.8
03/24/2019 03:00 0.00 35.2 29.0 475.25 364.5
03/24/2019 02:00 0.00 35.2 30.0 475.27 373.0
03/24/2019 01:00 0.00 35.2 31.0 475.28 378.3
03/24/2019 00:00 0.00 35.4 31.0 475.28 379.0
03/23/2019 23:00 0.00 35.6 30.0 475.28 383.8
03/23/2019 22:00 0.00 35.8 32.0 475.29 385.8
03/23/2019 21:00 0.00 36.0 33.0 475.29 387.3
03/23/2019 20:00 0.00 36.0 35.0 475.29 386.3
03/23/2019 19:00 0.00 36.0 37.0 475.30 391.3
03/23/2019 18:00 0.00 36.0 38.0 475.32 379.0
03/23/2019 17:00 0.00 35.8 40.0 475.31 391.0
03/23/2019 16:00 0.00 35.6 37.0 475.30 377.5
03/23/2019 15:00 0.00 35.4 37.0 475.29 393.8
03/23/2019 14:00 0.00 35.4 35.0 475.31 397.3
03/23/2019 13:00 0.00 35.2 35.0 475.32 392.5
03/23/2019 12:00 0.00 35.1 34.0 475.32 398.8
03/23/2019 11:00 0.00 35.1 34.0 475.32 397.8
03/23/2019 10:00 0.00 35.1 33.0 475.31 401.3
03/23/2019 09:00 0.00 35.1 33.0 475.31 405.0
03/23/2019 08:00 0.00 35.1 33.0 475.32 409.8
03/23/2019 07:00 0.00 35.1 34.0 475.36 415.8
03/23/2019 06:00 0.00 35.2 35.0 475.33 410.8
03/23/2019 05:00 0.00 35.2 35.0 475.33 414.8
03/23/2019 04:00 0.01 35.2 34.0 475.33 412.0
03/23/2019 03:00 0.01 35.2 34.0 475.33 409.3
03/23/2019 02:00 0.02 35.2 34.0 475.32 405.0
03/23/2019 01:00 0.01 35.4 34.0 475.32 400.8
03/23/2019 00:00 0.00 35.6 36.0 475.31 395.3
03/22/2019 23:00 0.00 35.8 36.0 475.30 389.5
03/22/2019 22:00 0.00 36.1 35.0 475.29 379.8
03/22/2019 21:00 0.00 36.3 36.0 475.28 371.5
03/22/2019 20:00 0.00 36.5 35.0 475.26 358.3
03/22/2019 19:00 0.01 36.5 35.0 475.24 344.5
03/22/2019 18:00 0.01 36.5 36.0 475.22 330.3
03/22/2019 17:00 0.01 36.3 37.0 475.19 318.8
03/22/2019 16:00 0.01 36.3 39.0 475.17 300.5
03/22/2019 15:00 0.02 36.1 40.0 475.15 287.8
03/22/2019 14:00 0.01 36.0 37.0 475.13 276.5
03/22/2019 13:00 0.00 35.8 38.0 475.12 266.5
03/22/2019 12:00 0.01 35.8 36.0 475.10 257.5
03/22/2019 11:00 0.10 35.8 35.0 475.11 251.8
03/22/2019 10:00 0.11 35.6 34.0 475.07 240.0
03/22/2019 09:00 0.09 35.6 34.0 475.06 242.0
03/22/2019 08:00 0.00 35.6 34.0 475.07 239.5
03/22/2019 07:00 0.00 35.8 34.0 475.06 238.5
03/22/2019 06:00 0.00 36.0 35.0 475.06 237.0
03/22/2019 05:00 0.00 36.5 35.0 475.06 237.0
03/22/2019 04:00 0.00 36.7 36.0 475.06 234.5
03/22/2019 03:00 0.00 36.7 36.0 475.06 232.5
03/22/2019 02:00 0.00 36.7 36.0 475.05 232.0
03/22/2019 01:00 0.00 36.9 36.0 475.05 230.0
03/22/2019 00:00 0.00 36.9 36.0 475.05 229.5
03/21/2019 23:00 0.00 36.7 37.0 475.05 228.0
03/21/2019 22:00 0.00 36.3 37.0 475.05 226.0
03/21/2019 21:00 0.00 36.3 38.0 475.04 224.0
03/21/2019 20:00 0.00 36.0 40.0 475.04 222.3
03/21/2019 19:00 0.00 35.8 43.0 475.03 219.5
03/21/2019 18:00 0.00 35.6 46.0 475.03 216.0
03/21/2019 17:00 0.00 35.6 47.0 475.02 214.0
03/21/2019 16:00 0.00 35.6 48.0 475.02 210.5
03/21/2019 15:00 0.00 35.4 48.0 475.01 208.5
03/21/2019 14:00 0.00 35.2 47.0 475.01 207.5
03/21/2019 13:00 0.00 35.2 48.0 475.00 204.0
03/21/2019 12:00 0.00 34.9 46.0 475.00 201.0
03/21/2019 11:00 0.00 34.9 44.0 475.00 202.5
03/21/2019 10:00 0.00 34.9 41.0 475.00 204.0
03/21/2019 09:00 0.00 35.2 33.0 475.01 207.5
03/21/2019 08:00 0.00 35.8 27.0 475.01 208.5
03/21/2019 07:00 0.00 36.1 25.0 475.01 210.0
03/21/2019 06:00 0.00 36.3 26.0 475.02 211.0
03/21/2019 05:00 0.00 36.5 26.0 475.02 211.0
03/21/2019 04:00 0.00 36.5 26.0 475.02 213.0
03/21/2019 03:00 0.00 36.3 27.0 475.02 213.0
03/21/2019 02:00 0.00 36.3 28.0 475.02 213.0
03/21/2019 01:00 0.00 36.1 27.0 475.02 214.0
03/21/2019 00:00 0.00 36.5 28.0 475.02 215.0
03/20/2019 23:00 0.00 36.3 31.0 475.02 215.5
03/20/2019 22:00 0.00 36.1 33.0 475.02 217.0
03/20/2019 21:00 0.00 35.6 34.0 475.03 219.0
03/20/2019 20:00 0.00 35.1 39.0 475.03 219.0
03/20/2019 19:00 0.00 35.1 43.0 475.03 218.5
03/20/2019 18:00 0.00 34.9 50.0 475.03 217.0
03/20/2019 17:00 0.00 34.9 50.0 475.03 216.5
03/20/2019 16:00 0.00 34.9 49.0 475.02 213.0
03/20/2019 15:00 0.00 34.5 47.0 475.02 208.5
03/20/2019 14:00 0.00 34.3 46.0 475.00 200.5
03/20/2019 13:00 0.00 34.2 44.0 474.99 194.0
03/20/2019 12:00 0.00 34.2 40.0 474.98 189.0
03/20/2019 11:00 0.00 34.2 38.0 474.97 187.5
03/20/2019 10:00 0.00 34.3 32.0 474.97 186.0
03/20/2019 09:00 0.00 34.5 22.0 474.97 187.8
03/20/2019 08:00 0.00 34.7 16.0 474.98 190.5
03/20/2019 07:00 0.00 34.9 15.0 474.98 193.0
03/20/2019 06:00 0.00 35.2 16.0 474.99 198.0
03/20/2019 05:00 0.00 35.4 17.0 475.00 203.5
03/20/2019 04:00 0.00 35.4 17.0 475.01 207.8
03/20/2019 03:00 0.00 35.6 18.0 475.02 211.5
03/20/2019 02:00 0.00 35.4 19.0 475.02 213.0
03/20/2019 01:00 0.00 35.4 20.0 475.02 215.0
03/20/2019 00:00 0.00 35.4 22.0 475.03 217.0
03/19/2019 23:00 0.00 35.6 23.0 475.03 220.0
03/19/2019 22:00 0.00 35.4 25.0 475.03 221.3
03/19/2019 21:00 0.00 34.7 27.0 475.04 222.5
03/19/2019 20:00 0.00 34.5 30.0 475.04 225.0
03/19/2019 19:00 0.00 34.5 35.0 475.04 228.0
03/19/2019 18:00 0.00 34.5 38.0 475.05 230.5
03/19/2019 17:00 0.00 34.5 39.0 475.05 229.5
03/19/2019 16:00 0.00 34.3 37.0 475.05 227.5
03/19/2019 15:00 0.00 34.2 37.0 475.05 225.5
03/19/2019 14:00 0.00 34.0 37.0 475.04 219.8
03/19/2019 13:00 0.00 34.0 34.0 475.02 213.0
03/19/2019 12:00 0.00 33.8 34.0 475.01 209.5
03/19/2019 11:00 0.00 33.8 32.0 475.01 208.8
03/19/2019 10:00 0.00 33.6 31.0 475.01 209.5
03/19/2019 09:00 0.00 33.6 25.0 475.02 212.5
03/19/2019 08:00 0.00 33.6 18.0 475.02 216.0
03/19/2019 07:00 0.00 33.6 19.0 475.03 220.0
03/19/2019 06:00 0.00 33.8 17.0 475.04 223.5
03/19/2019 05:00 0.00 34.2 18.0 475.04 228.0
03/19/2019 04:00 0.00 34.3 19.0 475.05 233.5
03/19/2019 03:00 0.00 34.5 20.0 475.06 238.5
03/19/2019 02:00 0.00 34.5 22.0 475.07 242.0
03/19/2019 01:00 0.00 34.5 23.0 475.07 245.5
03/19/2019 00:00 0.00 34.7 23.0 475.08 249.0
03/18/2019 23:00 0.00 34.5 23.0 475.09 253.5
03/18/2019 22:00 0.00 34.3 25.0 475.10 258.0
03/18/2019 21:00 0.00 34.3 26.0 475.10 263.0
03/18/2019 20:00 0.00 34.2 29.0 475.11 267.5
03/18/2019 19:00 0.00 34.2 34.0 475.12 271.5
03/18/2019 18:00 0.00 34.0 36.0 475.13 276.0
03/18/2019 17:00 0.00 33.8 36.0 475.11 269.0
03/18/2019 16:00 0.00 33.6 35.0 475.12 270.0
03/18/2019 15:00 0.00 33.4 34.0 475.12 264.0
03/18/2019 14:00 0.00 33.4 33.0 475.10 257.0
03/18/2019 13:00 0.00 33.3 31.0 475.09 251.0
03/18/2019 12:00 0.00 33.3 30.0 475.08 247.3
03/18/2019 11:00 0.00 33.3 28.0 475.08 248.5
03/18/2019 10:00 0.00 33.1 27.0 475.08 252.0
03/18/2019 09:00 0.00 33.3 25.0 475.09 257.0
03/18/2019 08:00 0.00 33.3 18.0 475.10 262.0
03/18/2019 07:00 0.00 33.3 18.0 475.11 266.5
03/18/2019 06:00 0.00 33.3 19.0 475.12 272.5
03/18/2019 05:00 0.00 33.3 18.0 475.13 278.5
03/18/2019 04:00 0.00 33.3 18.0 475.14 287.0
03/18/2019 03:00 0.00 33.3 20.0 475.15 295.0
03/18/2019 02:00 0.00 33.4 22.0 475.16 303.0
03/18/2019 01:00 0.00 33.4 25.0 475.18 311.5
03/18/2019 00:00 0.00 33.6 26.0 475.19 318.3
03/17/2019 23:00 0.00 33.8 27.0 475.20 325.0
03/17/2019 22:00 0.00 33.8 27.0 475.20 330.0
03/17/2019 21:00 0.00 34.0 29.0 475.22 337.0
03/17/2019 20:00 0.00 33.8 30.0 475.22 342.0
03/17/2019 19:00 0.00 33.8 31.0 475.23 347.5
03/17/2019 18:00 0.00 33.6 33.0 475.24 350.5
03/17/2019 17:00 0.00 33.4 33.0 475.24 355.5
03/17/2019 16:00 0.00 33.3 33.0 475.24 349.5
03/17/2019 15:00 0.00 33.3 32.0 475.24 343.0
03/17/2019 14:00 0.00 33.1 30.0 475.23 338.0
03/17/2019 13:00 0.00 33.1 32.0 475.21 335.0
03/17/2019 12:00 0.00 33.1 29.0 475.21 326.5
03/17/2019 11:00 0.00 33.1 28.0 475.21 330.0
03/17/2019 10:00 0.00 33.1 27.0 475.22 336.8
03/17/2019 09:00 0.00 33.3 27.0 475.21 331.0
03/17/2019 08:00 0.00 33.3 26.0 475.21 330.5
03/17/2019 07:00 0.00 33.3 26.0 475.21 333.0
03/17/2019 06:00 0.00 33.3 26.0 475.22 336.5
03/17/2019 05:00 0.00 33.4 29.0 475.22 341.0
03/17/2019 04:00 0.00 33.4 30.0 475.21 341.0
03/17/2019 03:00 0.00 33.6 30.0 475.23 346.3
03/17/2019 02:00 0.00 34.0 29.0 475.24 349.0
03/17/2019 01:00 0.00 34.3 30.0 475.24 351.0
03/17/2019 00:00 0.00 34.5 31.0 475.24 352.5
03/16/2019 23:00 0.00 34.7 30.0 475.24 353.0
03/16/2019 22:00 0.00 34.9 32.0 475.24 353.0
03/16/2019 21:00 0.00 35.2 34.0 475.25 353.0
03/16/2019 20:00 0.00 35.2 35.0 475.24 352.0
03/16/2019 19:00 0.00 35.2 37.0 475.24 346.0
03/16/2019 18:00 0.00 35.1 38.0 475.23 338.3
03/16/2019 17:00 0.00 34.9 39.0 475.22 331.3
03/16/2019 16:00 0.00 34.5 40.0 475.21 321.3
03/16/2019 15:00 0.00 34.3 41.0 475.18 305.0
03/16/2019 14:00 0.00 34.2 42.0 475.17 294.5
03/16/2019 13:00 0.00 34.0 43.0 475.15 284.0
03/16/2019 12:00 0.00 33.8 42.0 475.11 264.0
03/16/2019 11:00 0.00 33.8 43.0 475.10 264.5
03/16/2019 10:00 0.00 33.8 44.0 475.12 264.0
03/16/2019 09:00 0.00 34.2 43.0 475.09 256.0
03/16/2019 08:00 0.00 34.3 42.0 475.09 252.5
03/16/2019 07:00 0.00 34.5 41.0 475.08 248.0
03/16/2019 06:00 0.00 34.5 43.0 475.08 244.8
03/16/2019 05:00 0.00 34.9 43.0 475.07 239.5
03/16/2019 04:00 0.00 34.9 44.0 475.06 235.0
03/16/2019 03:00 0.00 34.9 45.0 475.05 230.5
03/16/2019 02:00 0.00 35.1 45.0 475.05 225.0
03/16/2019 01:00 0.00 34.3 38.0 475.04 220.8
03/16/2019 00:00 0.00 34.2 37.0 475.03 214.0
03/15/2019 23:00 0.00 34.0 37.0 475.01 207.5
03/15/2019 22:00 0.00 34.0 38.0 475.00 201.0
03/15/2019 21:00 0.00 33.8 40.0 474.99 194.0
03/15/2019 20:00 0.00 33.8 43.0 474.98 187.3
03/15/2019 19:00 0.00 33.8 48.0 474.96 179.5
03/15/2019 18:00 0.00 33.8 57.0 474.95 168.8
03/15/2019 17:00 0.00 34.2 63.0 474.92 155.5
03/15/2019 16:00 0.00 34.2 61.0 474.90 142.3
03/15/2019 15:00 0.00 34.3 60.0 474.88 134.8
03/15/2019 14:00 0.00 34.3 56.0 474.86 128.8
03/15/2019 13:00 0.01 34.3 51.0 474.86 125.3
03/15/2019 12:00 0.00 34.5 50.0 474.85 122.0
03/15/2019 11:00 0.00 34.7 47.0 474.84 121.0
03/15/2019 10:00 0.04 34.7 42.0 474.84 119.8
03/15/2019 09:00 0.08 34.7 37.0 474.84 116.0
03/15/2019 08:00 0.00 34.3 37.0 474.83 113.0
03/15/2019 07:00 0.00 34.3 40.0 474.83 113.5
03/15/2019 06:00 0.00 34.2 40.0 474.83 115.0
03/15/2019 05:00 0.00 33.8 37.0 474.83 114.0
03/15/2019 04:00 0.00 33.6 39.0 474.83 114.5
03/15/2019 03:00 0.00 33.6 41.0 474.83 113.5
03/15/2019 02:00 0.00 33.4 37.0 474.83 112.8
03/15/2019 01:00 0.00 33.4 36.0 474.83 112.5
03/15/2019 00:00 0.00 33.4 35.0 474.83 112.3
03/14/2019 23:00 0.00 33.4 33.0 474.82 111.0
03/14/2019 22:00 0.00 33.4 35.0 474.82 110.5
03/14/2019 21:00 0.00 33.6 37.0 474.82 109.3
03/14/2019 20:00 0.00 33.6 39.0 474.82 108.5
03/14/2019 19:00 0.00 33.6 41.0 474.81 107.0
03/14/2019 18:00 0.00 33.6 46.0 474.81 106.0
03/14/2019 17:00 0.00 33.8 46.0 474.81 106.0
03/14/2019 16:00 0.00 33.8 46.0 474.81 103.5
03/14/2019 15:00 0.00 34.0 47.0 474.81 103.8
03/14/2019 14:00 0.00 34.0 47.0 474.80 103.5
03/14/2019 13:00 0.00 34.0 45.0 474.80 103.0
03/14/2019 12:00 0.00 34.2 42.0 474.80 103.0
03/14/2019 11:00 0.00 34.2 37.0 474.80 103.3
03/14/2019 10:00 0.00 34.3 35.0 474.81 103.3
03/14/2019 09:00 0.00 34.0 33.0 474.80 103.0
03/14/2019 08:00 0.00 34.0 32.0 474.80 103.8
03/14/2019 07:00 0.00 33.8 32.0 474.80 103.5
03/14/2019 06:00 0.00 33.4 31.0 474.81 104.0
03/14/2019 05:00 0.00 33.3 32.0 474.81 104.0
03/14/2019 04:00 0.00 33.1 32.0 474.81 104.0
03/14/2019 03:00 0.00 33.1 33.0 474.81 104.0
03/14/2019 02:00 0.00 33.1 33.0 474.81 105.0
03/14/2019 01:00 0.00 33.1 33.0 474.81 104.0
03/14/2019 00:00 0.00 33.1 33.0 474.81 104.5
03/13/2019 23:00 0.00 33.1 34.0 474.81 104.5
03/13/2019 22:00 0.00 33.1 35.0 474.81 104.5
03/13/2019 21:00 0.00 33.1 37.0 474.81 106.0
03/13/2019 20:00 0.00 33.1 36.0 474.81 105.5
03/13/2019 19:00 0.00 33.3 38.0 474.81 105.5
03/13/2019 18:00 0.00 33.3 40.0 474.81 106.0
03/13/2019 17:00 0.00 33.3 41.0 474.81 106.0
03/13/2019 16:00 0.00 33.3 40.0 474.81 106.0
03/13/2019 15:00 0.00 33.4 41.0 474.81 106.0
03/13/2019 14:00 0.00 33.6 40.0 474.81 106.8
03/13/2019 13:00 0.00 33.8 40.0 474.81 109.0
03/13/2019 12:00 0.00 34.0 39.0 474.82 113.8
03/13/2019 11:00 0.00 34.0 36.0 474.83 113.0
03/13/2019 10:00 0.00 34.0 30.0 474.81 104.0
03/13/2019 09:00 0.00 34.2 23.0 474.80 101.0
03/13/2019 08:00 0.00 33.8 17.0 474.80 101.0
03/13/2019 07:00 0.00 33.8 16.0 474.80 103.3
03/13/2019 06:00 0.00 33.6 17.0 474.81 105.5
03/13/2019 05:00 0.00 33.3 19.0 474.81 107.0
03/13/2019 04:00 0.00 32.9 20.0 474.82 109.0
03/13/2019 03:00 0.00 32.9 22.0 474.82 109.0
03/13/2019 02:00 0.00 32.7 25.0 474.82 109.8
03/13/2019 01:00 0.00 32.5 27.0 474.82 110.5
03/13/2019 00:00 0.00 32.7 28.0 474.82 109.3
03/12/2019 23:00 0.00 32.7 29.0 474.82 110.8
03/12/2019 22:00 0.00 32.7 31.0 474.82 111.0
03/12/2019 21:00 0.00 32.7 31.0 474.82 111.0
03/12/2019 20:00 0.00 32.7 33.0 474.82 110.5
03/12/2019 19:00 0.00 32.7 35.0 474.82 111.5
03/12/2019 18:00 0.00 32.7 37.0 474.82 109.8
03/12/2019 17:00 0.00 32.9 39.0 474.82 110.3
03/12/2019 16:00 0.00 32.9 38.0 474.82 110.0
03/12/2019 15:00 0.00 32.9 38.0 474.82 110.8
03/12/2019 14:00 0.00 32.9 36.0 474.81 108.8
03/12/2019 13:00 0.00 32.9 35.0 474.82 108.5
03/12/2019 12:00 0.00 33.1 34.0 474.80 110.3
03/12/2019 11:00 0.00 33.1 33.0 474.83 112.8
03/12/2019 10:00 0.00 33.1 32.0 474.82 111.3
03/12/2019 09:00 0.00 33.1 31.0 474.82 111.0
03/12/2019 08:00 0.00 33.1 29.0 474.82 110.5
03/12/2019 07:00 0.00 33.1 29.0 474.82 109.3
03/12/2019 06:00 0.00 33.1 30.0 474.82 110.3
03/12/2019 05:00 0.00 32.9 31.0 474.82 109.8
03/12/2019 04:00 0.00 32.9 31.0 474.82 109.0
03/12/2019 03:00 0.00 32.7 32.0 474.82 110.0
03/12/2019 02:00 0.00 32.7 32.0 474.82 109.8
03/12/2019 01:00 0.00 32.5 33.0 474.82 110.0
03/12/2019 00:00 0.00 32.5 33.0 474.82 111.0
03/11/2019 23:00 0.00 32.5 34.0 474.82 110.3
03/11/2019 22:00 0.00 32.5 35.0 474.82 111.0
03/11/2019 21:00 0.00 32.5 36.0 474.82 110.3
03/11/2019 20:00 0.00 32.5 37.0 474.82 108.5
03/11/2019 19:00 0.00 32.5 39.0 474.81 106.8
03/11/2019 18:00 0.00 32.5 40.0 474.81 106.3
03/11/2019 17:00 0.00 32.5 42.0 474.81 108.0
03/11/2019 16:00 0.00 32.5 42.0 474.82 108.8
03/11/2019 15:00 0.01 32.5 41.0 474.81 108.0
03/11/2019 14:00 0.00 32.5 42.0 474.82 109.0
03/11/2019 13:00 0.16 32.5 42.0 474.81 107.5
03/11/2019 12:00 0.27 32.5 41.0 474.81 106.8
03/11/2019 11:00 0.20 32.5 39.0 474.81 106.5
03/11/2019 10:00 0.00 32.5 38.0 474.81 107.0
03/11/2019 09:00 0.00 32.5 35.0 474.81 106.8
03/11/2019 08:00 0.00 32.5 34.0 474.81 106.8
03/11/2019 07:00 0.00 32.5 33.0 474.81 106.8
03/11/2019 06:00 0.00 32.5 33.0 474.81 106.8
03/11/2019 05:00 0.00 32.7 33.0 474.81 106.3
03/11/2019 04:00 0.00 32.7 32.0 474.81 106.3
03/11/2019 03:00 0.00 32.7 32.0 474.81 106.0
03/11/2019 02:00 0.00 32.7 32.0 474.81 105.5
03/11/2019 01:00 0.00 32.7 32.0 474.81 105.5
03/11/2019 00:00 0.00 32.7 32.0 474.81 105.5
03/10/2019 23:00 0.00 32.7 33.0 474.81 105.5
03/10/2019 22:00 0.00 32.9 34.0 474.81 104.5
03/10/2019 21:00 0.00 32.9 34.0 474.81 104.5
03/10/2019 20:00 0.00 32.9 34.0 474.81 105.0
03/10/2019 19:00 0.00 32.9 33.0 474.81 104.8
03/10/2019 18:00 0.00 32.9 33.0 474.81 105.0
03/10/2019 17:00 0.00 33.1 33.0 474.80 103.5
03/10/2019 16:00 0.00 33.1 32.0 474.81 103.5
03/10/2019 15:00 0.00 33.3 32.0 474.80 102.0
03/10/2019 14:00 0.00 33.3 32.0 474.80 100.8
03/10/2019 13:00 0.00 33.3 30.0 474.80 100.3
03/10/2019 12:00 0.00 33.3 29.0 474.80 99.8
03/10/2019 11:00 0.00 33.4 28.0 474.80 99.3
03/10/2019 10:00 0.00 33.4 27.0 474.79 97.5
03/10/2019 09:00 0.00 33.4 29.0 474.79 97.5
03/10/2019 08:00 0.00 33.3 28.0 474.79 97.5
03/10/2019 07:00 0.00 33.3 27.0 474.79 97.0
03/10/2019 06:00 0.00 33.1 26.0 474.79 97.5
03/10/2019 05:00 -- -- -- -- --
03/10/2019 04:00 -- -- -- -- --
03/10/2019 03:00 -- -- -- -- --
03/10/2019 02:00 -- -- -- -- --